Terminal Aerodrome Forecast
Issued by NWS

Home | Current Version | Previous Version | Text Only | Print | Product List | Glossary On
Versions: 1 2 3 4 5 6 7 8 9 10 11 12 13 14 15 16 17 18 19 20 21
000
FTUS45 KBOU 291415 AAA
TAFAPA
TAF AMD
KAPA 291415Z 2914/3012 17005KT P6SM FEW120 SCT220
     FM291500 23006KT P6SM FEW120 SCT220
     FM291800 03008KT P6SM SCT120 SCT220
     FM292200 14013KT P6SM SCT110 BKN200
     FM300200 18009KT P6SM SCT100 BKN200=

USA.gov is the U.S. government's official web portal to all federal, state and local government web resources and services.